Strona główna
METAR-TAF:

METAR-TAF

Lotnisko :

Barra do Garças, Mato Grosso, Brazylia

Szerokość geograficzna: 15-52S, Długość geograficzna: 052-23W, wysokość: 350 m

Aktualna obserwacja pogody

Raport powstał 1 godzina i 24 minut temu, godzina 18:00 UTC
Wiatr 5 kt od zachodnio-północny zachód
Temperatura 30°C
Wilgotność 66%
Ciśnienie 1012 hPa
Widzialność 10 km lub więcej
Mało chmury na wysokości 2000 ft
Mało chmury na wysokości 2500 ft, Cumulusy wypiętrznone.
Przerywane chmury na wysokości 9700 ft

METAR: SBBW 251800Z 30005KT 9999 FEW020 FEW025TCU BKN097 30/23 Q1012

czas: 15:24 (19:24 UTC)

Prognoza

Raport powstał 3 godziny i 24 minut temu, godzina 16:00 UTC
Prognoza ważna od 25 godzina 18 UTC do 26 godzina 06 UTC
Wiatr kt od północ
Widzialność 10 km lub więcej

TAF: SBBW 251600Z 2518/2606 00000KT 9999 FEW020TX34/2518Z TN25/2605Z RMK PGQ

Obserwacja i prognoza pogody dla ponad 4000 lotnisk (raport METAR i TAF).

Dostępne stacje oznaczono żółtymi i czerwonymi punktami na mapie.

Najedź kursorem aby zobaczyć nazwę stacji.

Kliknij aby zobaczyć obserwacje i prognozy pogody.

Aby zmienić mapę: kliknij na zielony przycisk z czarnym krzyżykiem, aby powiększyć; na zielony przycisk z myślnikiem, aby pomniejszyć; na zielone strzałki, aby przejść do map sąsiednich.


METAR-TAF: